createdAt,value
2022-11-03T00:02:09.087Z,53.53
2022-11-03T00:04:36.624Z,52.94
2022-11-03T00:07:04.127Z,53.20
2022-11-03T00:09:32.629Z,51.72
2022-11-03T00:12:00.942Z,51.46
2022-11-03T00:14:29.257Z,51.30
2022-11-03T00:16:56.726Z,50.16
2022-11-03T00:19:24.284Z,49.52
2022-11-03T00:21:52.732Z,49.72
2022-11-03T00:24:20.307Z,48.98
2022-11-03T00:26:47.734Z,48.74
2022-11-03T00:29:16.203Z,47.09
2022-11-03T00:31:45.569Z,47.14
2022-11-03T00:34:13.444Z,47.72
2022-11-03T00:36:45.537Z,46.61
2022-11-03T00:39:13.435Z,46.78
2022-11-03T00:41:41.312Z,47.03
2022-11-03T00:44:10.689Z,47.62
2022-11-03T00:46:38.801Z,48.17
2022-11-03T00:49:07.008Z,48.31
2022-11-03T00:51:39.910Z,48.45
2022-11-03T00:54:07.689Z,48.70
2022-11-03T00:56:41.281Z,49.30
2022-11-03T00:59:10.593Z,49.70
2022-11-03T01:01:47.012Z,49.42
2022-11-03T01:04:35.210Z,49.50
2022-11-03T01:07:04.890Z,49.82
2022-11-03T01:09:41.408Z,50.24
2022-11-03T01:12:14.923Z,50.21
2022-11-03T01:14:49.089Z,50.34
2022-11-03T01:17:22.334Z,50.51
2022-11-03T01:19:50.209Z,50.50
2022-11-03T01:22:19.089Z,50.24
2022-11-03T01:24:47.094Z,50.57
2022-11-03T01:27:20.432Z,50.51
2022-11-03T01:29:48.014Z,49.95
2022-11-03T01:32:15.913Z,50.55
2022-11-03T01:34:43.404Z,50.87
2022-11-03T01:37:11.047Z,50.52
2022-11-03T01:39:38.587Z,50.56
2022-11-03T01:42:06.425Z,50.39
2022-11-03T01:44:37.794Z,50.76
2022-11-03T01:47:33.493Z,50.92
2022-11-03T01:50:08.221Z,50.66
2022-11-03T01:52:45.272Z,50.87
2022-11-03T01:55:22.166Z,50.49
2022-11-03T01:58:01.337Z,49.69
2022-11-03T02:00:28.928Z,49.06
2022-11-03T02:02:56.507Z,49.07
2022-11-03T02:05:26.817Z,49.27
2022-11-03T02:08:14.311Z,49.37
2022-11-03T02:10:42.440Z,49.69
2022-11-03T02:13:22.691Z,49.55
2022-11-03T02:15:56.828Z,49.13
2022-11-03T02:18:33.168Z,48.49
2022-11-03T02:21:27.814Z,48.03
2022-11-03T02:24:03.865Z,45.77
2022-11-03T02:26:31.768Z,44.91
2022-11-03T02:28:59.392Z,44.40
2022-11-03T02:31:34.530Z,45.36
2022-11-03T02:34:32.701Z,45.58
2022-11-03T02:37:21.215Z,45.32
2022-11-03T02:39:59.361Z,45.59
2022-11-03T02:42:27.619Z,45.01
2022-11-03T02:45:00.569Z,45.60
2022-11-03T02:47:31.157Z,45.64
2022-11-03T02:49:58.811Z,46.29
2022-11-03T02:52:43.857Z,46.50
2022-11-03T02:55:50.032Z,46.54
2022-11-03T02:58:46.493Z,47.01
2022-11-03T03:01:48.397Z,47.63
2022-11-03T03:04:27.494Z,47.40
2022-11-03T03:07:29.717Z,47.79
2022-11-03T03:10:06.124Z,48.41
2022-11-03T03:12:37.489Z,48.69
2022-11-03T03:15:08.861Z,48.79
2022-11-03T03:17:54.424Z,47.31
2022-11-03T03:20:34.636Z,47.71
2022-11-03T03:23:17.264Z,47.74
2022-11-03T03:26:26.256Z,48.44
2022-11-03T03:29:18.560Z,47.96
2022-11-03T03:31:56.879Z,47.49
2022-11-03T03:34:36.129Z,47.98
2022-11-03T03:37:06.469Z,47.90
2022-11-03T03:39:37.911Z,48.26
2022-11-03T03:42:09.075Z,47.99
2022-11-03T03:44:39.486Z,48.29
2022-11-03T03:47:19.350Z,48.43
2022-11-03T03:49:46.947Z,48.32
2022-11-03T03:52:15.732Z,48.61
2022-11-03T03:54:43.231Z,48.75
2022-11-03T03:57:20.879Z,48.79
2022-11-03T03:59:51.498Z,49.43
2022-11-03T04:02:19.057Z,49.69
2022-11-03T04:04:46.566Z,49.69
2022-11-03T04:07:32.833Z,49.24
2022-11-03T04:10:00.256Z,49.02
2022-11-03T04:12:46.695Z,49.68
2022-11-03T04:15:33.417Z,49.53
2022-11-03T04:18:19.469Z,50.52
2022-11-03T04:21:05.263Z,50.58
2022-11-03T04:23:32.688Z,50.71
2022-11-03T04:26:00.319Z,51.11
2022-11-03T04:28:27.933Z,51.41
2022-11-03T04:30:59.500Z,50.84
2022-11-03T04:33:27.723Z,51.94
2022-11-03T04:35:58.999Z,51.61
2022-11-03T04:38:28.425Z,51.61
2022-11-03T04:41:00.024Z,51.41
2022-11-03T04:43:38.696Z,51.56
2022-11-03T04:46:08.432Z,51.75
2022-11-03T04:48:35.955Z,51.75
2022-11-03T04:51:20.333Z,52.00
2022-11-03T04:53:54.951Z,52.02
2022-11-03T04:56:25.715Z,52.50
2022-11-03T04:58:54.349Z,52.61
2022-11-03T05:01:25.834Z,52.68
2022-11-03T05:03:55.359Z,52.51
2022-11-03T05:06:27.811Z,52.47
2022-11-03T05:09:16.992Z,52.72
2022-11-03T05:11:48.221Z,53.68
2022-11-03T05:14:27.220Z,53.90
2022-11-03T05:16:56.358Z,53.79
2022-11-03T05:19:43.636Z,54.02
2022-11-03T05:22:18.719Z,54.12
2022-11-03T05:24:46.255Z,53.90
2022-11-03T05:27:19.957Z,53.60
2022-11-03T05:29:48.847Z,53.39
2022-11-03T05:32:23.364Z,53.11
2022-11-03T05:34:53.600Z,53.50
2022-11-03T05:37:28.561Z,53.71
2022-11-03T05:39:59.903Z,53.46
2022-11-03T05:42:38.130Z,53.55
2022-11-03T05:45:22.963Z,53.38
2022-11-03T05:47:54.808Z,53.53
2022-11-03T05:50:25.919Z,53.66
2022-11-03T05:53:27.794Z,53.81
2022-11-03T05:55:57.411Z,54.32
2022-11-03T05:58:47.991Z,54.05
2022-11-03T06:01:35.986Z,53.31
2022-11-03T06:04:33.800Z,52.84
2022-11-03T06:07:27.727Z,51.66
2022-11-03T06:09:55.224Z,51.41
2022-11-03T06:12:23.773Z,50.96
2022-11-03T06:14:52.933Z,50.50
2022-11-03T06:17:29.600Z,49.78
2022-11-03T06:19:59.526Z,49.67
2022-11-03T06:22:34.658Z,48.46
2022-11-03T06:25:27.091Z,48.51
2022-11-03T06:28:01.007Z,48.61
2022-11-03T06:33:27.926Z,48.19
2022-11-03T06:36:04.125Z,47.94
2022-11-03T06:38:35.284Z,47.20
2022-11-03T06:41:02.856Z,46.86
2022-11-03T06:43:44.045Z,46.94
2022-11-03T06:46:31.569Z,46.21
2022-11-03T06:49:01.641Z,46.40
2022-11-03T06:51:30.800Z,45.75
2022-11-03T06:54:03.132Z,45.39
2022-11-03T06:56:35.817Z,45.75
2022-11-03T06:59:03.609Z,45.42
2022-11-03T07:01:34.456Z,45.24
2022-11-03T07:04:15.111Z,45.67
2022-11-03T07:06:47.791Z,45.38
2022-11-03T07:09:25.985Z,44.35
2022-11-03T07:12:00.545Z,44.59
2022-11-03T07:14:31.736Z,43.62
2022-11-03T07:17:03.997Z,43.40
2022-11-03T07:19:40.481Z,43.57
2022-11-03T07:22:27.702Z,43.25
2022-11-03T07:25:00.633Z,41.97
2022-11-03T07:27:36.749Z,41.04
2022-11-03T07:30:24.573Z,40.29
2022-11-03T07:33:00.928Z,40.03
2022-11-03T07:36:00.219Z,40.31
2022-11-03T07:38:24.454Z,39.21
2022-11-03T07:40:53.782Z,40.58
2022-11-03T07:43:32.305Z,38.90
2022-11-03T07:46:05.221Z,39.04
2022-11-03T07:48:51.770Z,37.67
2022-11-03T07:51:37.783Z,37.56
2022-11-03T07:54:28.360Z,37.27
2022-11-03T07:57:06.155Z,36.43
2022-11-03T07:59:41.465Z,35.39
2022-11-03T08:02:35.246Z,35.10
2022-11-03T08:05:03.641Z,35.50
2022-11-03T08:07:31.751Z,35.63
2022-11-03T08:09:59.491Z,36.24
2022-11-03T08:12:27.041Z,36.25
2022-11-03T08:14:54.476Z,36.09
2022-11-03T08:17:21.954Z,36.81
2022-11-03T08:19:49.442Z,36.23
2022-11-03T08:22:16.912Z,35.68
2022-11-03T08:24:44.397Z,36.12
2022-11-03T08:27:11.872Z,35.77
2022-11-03T08:29:39.384Z,35.52
2022-11-03T08:32:06.884Z,35.41
2022-11-03T08:34:34.299Z,34.75
2022-11-03T08:37:01.786Z,35.36
2022-11-03T08:39:31.372Z,34.48
2022-11-03T08:41:58.845Z,36.15
2022-11-03T08:44:26.257Z,36.80
2022-11-03T08:46:53.744Z,36.02
2022-11-03T08:49:21.391Z,35.29
2022-11-03T08:51:48.844Z,35.91
2022-11-03T08:54:16.267Z,34.66
2022-11-03T08:56:47.145Z,34.87
2022-11-03T08:59:14.671Z,34.94
2022-11-03T09:01:42.215Z,35.71
2022-11-03T09:04:09.780Z,34.58
2022-11-03T09:06:37.184Z,34.70
2022-11-03T09:11:52.156Z,35.28
2022-11-03T09:14:19.606Z,34.98
2022-11-03T09:16:47.140Z,34.61
2022-11-03T09:19:14.574Z,33.90
2022-11-03T09:21:43.416Z,35.27
2022-11-03T09:24:10.897Z,34.93
2022-11-03T09:26:38.487Z,34.61
2022-11-03T09:29:07.406Z,33.94
2022-11-03T09:31:34.832Z,33.76
2022-11-03T09:34:02.348Z,33.97
2022-11-03T09:36:31.200Z,34.08
2022-11-03T09:38:58.647Z,33.36
2022-11-03T09:41:44.225Z,33.49
2022-11-03T09:44:14.001Z,33.46
2022-11-03T09:46:41.685Z,33.60
2022-11-03T09:49:15.597Z,33.55
2022-11-03T09:51:44.089Z,33.50
2022-11-03T09:54:15.785Z,35.09
2022-11-03T09:56:47.140Z,33.74
2022-11-03T09:59:18.933Z,33.65
2022-11-03T10:01:53.505Z,33.68
2022-11-03T10:04:28.071Z,34.02
2022-11-03T10:06:59.590Z,33.96
2022-11-03T10:09:29.805Z,33.57
2022-11-03T10:11:57.348Z,33.38
2022-11-03T10:14:24.890Z,33.76
2022-11-03T10:17:00.531Z,34.18
2022-11-03T10:19:28.900Z,33.95
2022-11-03T10:21:56.395Z,34.05
2022-11-03T10:24:25.065Z,33.93
2022-11-03T10:26:55.137Z,33.83
2022-11-03T10:29:27.433Z,34.07
2022-11-03T10:31:59.758Z,34.08
2022-11-03T10:34:39.232Z,33.33
2022-11-03T10:37:27.022Z,33.80
2022-11-03T10:39:57.890Z,34.20
2022-11-03T10:42:35.006Z,33.00
2022-11-03T10:45:19.397Z,32.62
2022-11-03T10:48:01.867Z,32.19
2022-11-03T10:50:29.764Z,32.10
2022-11-03T10:52:58.219Z,32.02
2022-11-03T10:55:27.203Z,31.85
2022-11-03T10:57:58.614Z,31.47
2022-11-03T11:00:26.562Z,31.58
2022-11-03T11:03:00.472Z,31.83
2022-11-03T11:05:28.321Z,31.29
2022-11-03T11:07:57.327Z,31.23
2022-11-03T11:10:28.349Z,31.18
2022-11-03T11:13:19.042Z,30.26
2022-11-03T11:15:58.917Z,29.85
2022-11-03T11:18:32.166Z,30.90
2022-11-03T11:21:21.125Z,30.84
2022-11-03T11:23:52.590Z,29.82
2022-11-03T11:26:26.217Z,30.42
2022-11-03T11:29:08.854Z,30.32
2022-11-03T11:31:42.588Z,29.94
2022-11-03T11:34:10.079Z,29.40
2022-11-03T11:36:42.570Z,28.80
2022-11-03T11:39:31.268Z,28.75
2022-11-03T11:42:20.254Z,29.75
2022-11-03T11:44:59.948Z,29.05
2022-11-03T11:47:51.997Z,26.56
2022-11-03T11:50:29.282Z,28.09
2022-11-03T11:53:11.883Z,28.14
2022-11-03T11:55:52.037Z,28.65
2022-11-03T11:58:33.014Z,28.23
2022-11-03T12:01:06.557Z,28.77
2022-11-03T12:03:39.329Z,28.81
2022-11-03T12:06:08.225Z,27.98
2022-11-03T12:08:35.778Z,28.19
2022-11-03T12:11:06.312Z,27.71
2022-11-03T12:13:51.240Z,28.30
2022-11-03T12:16:36.331Z,27.13
2022-11-03T12:19:41.108Z,27.19
2022-11-03T12:22:11.718Z,27.22
2022-11-03T12:25:08.542Z,26.33
2022-11-03T12:27:35.934Z,25.40
2022-11-03T12:30:14.449Z,25.60
2022-11-03T12:32:41.978Z,25.08
2022-11-03T12:35:11.050Z,25.75
2022-11-03T12:37:38.645Z,26.27
2022-11-03T12:40:07.365Z,25.21
2022-11-03T12:42:35.222Z,25.50
2022-11-03T12:45:02.899Z,26.21
2022-11-03T12:47:30.334Z,25.97
2022-11-03T12:49:58.402Z,25.51
2022-11-03T12:52:25.874Z,24.97
2022-11-03T12:54:53.568Z,25.76
2022-11-03T12:57:21.451Z,26.24
2022-11-03T12:59:51.422Z,25.83
2022-11-03T13:02:19.004Z,26.65
2022-11-03T13:04:46.676Z,25.96
2022-11-03T13:07:14.069Z,26.58
2022-11-03T13:09:41.510Z,26.39
2022-11-03T13:12:31.468Z,25.67
2022-11-03T13:15:00.893Z,26.63
2022-11-03T13:17:32.278Z,25.41
2022-11-03T13:20:14.650Z,25.94
2022-11-03T13:22:42.409Z,24.94
2022-11-03T13:25:10.339Z,25.22
2022-11-03T13:27:37.903Z,24.83
2022-11-03T13:30:07.423Z,25.01
2022-11-03T13:32:34.898Z,25.54
2022-11-03T13:35:02.433Z,25.93
2022-11-03T13:37:30.047Z,25.63
2022-11-03T13:39:57.765Z,25.58
2022-11-03T13:42:25.338Z,25.83
2022-11-03T13:44:53.036Z,26.08
2022-11-03T13:47:29.873Z,25.94
2022-11-03T13:50:14.009Z,26.86
2022-11-03T13:52:42.001Z,26.42
2022-11-03T14:00:47.296Z,26.24
2022-11-03T14:06:03.054Z,27.00
2022-11-03T14:08:30.503Z,26.88
2022-11-03T14:10:57.968Z,27.16
2022-11-03T14:13:25.467Z,27.32
2022-11-03T14:15:53.420Z,27.57
2022-11-03T14:18:20.841Z,27.75
2022-11-03T14:20:48.329Z,27.41
2022-11-03T14:23:15.765Z,28.34
2022-11-03T14:25:43.297Z,28.01
2022-11-03T14:28:10.858Z,28.47
2022-11-03T14:30:38.392Z,29.03
2022-11-03T14:33:05.795Z,29.76
2022-11-03T14:35:33.263Z,29.77
2022-11-03T14:38:00.777Z,30.04
2022-11-03T14:40:46.594Z,30.65
2022-11-03T14:43:14.558Z,31.19
2022-11-03T14:45:42.794Z,31.52
2022-11-03T14:48:10.612Z,32.91
2022-11-03T14:50:38.269Z,32.67
2022-11-03T14:53:05.862Z,32.78
2022-11-03T14:55:33.288Z,33.17
2022-11-03T14:58:00.749Z,34.20
2022-11-03T15:00:28.433Z,34.55
2022-11-03T15:02:56.075Z,35.08
2022-11-03T15:05:42.186Z,35.06
2022-11-03T15:08:10.286Z,35.82
2022-11-03T15:10:37.787Z,35.65
2022-11-03T15:13:05.630Z,36.41
2022-11-03T15:15:35.499Z,37.28
2022-11-03T15:18:05.236Z,37.79
2022-11-03T15:20:35.504Z,37.17
2022-11-03T15:25:53.811Z,38.01
2022-11-03T15:28:21.463Z,38.07
2022-11-03T15:30:49.081Z,38.18
2022-11-03T15:33:16.808Z,38.37
2022-11-03T15:35:47.174Z,39.05
2022-11-03T15:38:16.134Z,39.29
2022-11-03T15:40:45.451Z,38.92
2022-11-03T15:43:17.279Z,39.26
2022-11-03T15:45:47.290Z,39.31
2022-11-03T15:48:14.920Z,39.80
2022-11-03T15:50:43.138Z,39.82
2022-11-03T15:53:10.578Z,40.39
2022-11-03T15:55:38.140Z,40.40
2022-11-03T15:58:06.370Z,40.58
2022-11-03T16:00:36.431Z,40.32
2022-11-03T16:03:04.686Z,41.03
2022-11-03T16:05:32.407Z,41.56
2022-11-03T16:08:00.506Z,41.76
2022-11-03T16:10:27.963Z,41.61
2022-11-03T16:12:58.039Z,42.14
2022-11-03T16:15:25.582Z,42.54
2022-11-03T16:17:53.281Z,42.67
2022-11-03T16:20:21.186Z,42.81
2022-11-03T16:22:48.672Z,42.95
2022-11-03T16:25:19.161Z,42.91
2022-11-03T16:27:48.621Z,43.74
2022-11-03T16:30:16.193Z,44.18
2022-11-03T16:32:43.965Z,43.95
2022-11-03T16:35:11.677Z,44.26
2022-11-03T16:37:42.599Z,44.01
2022-11-03T16:40:14.889Z,44.46
2022-11-03T16:42:47.120Z,44.57
2022-11-03T16:45:30.378Z,44.84
2022-11-03T16:48:00.560Z,44.78
2022-11-03T16:50:28.082Z,45.26
2022-11-03T16:52:56.046Z,45.08
2022-11-03T16:55:23.553Z,45.33
2022-11-03T16:57:50.998Z,45.71
2022-11-03T17:00:20.418Z,45.61
2022-11-03T17:02:48.739Z,45.58
2022-11-03T17:05:18.861Z,45.98
2022-11-03T17:07:52.026Z,45.98
2022-11-03T17:10:21.919Z,45.77
2022-11-03T17:12:50.332Z,46.07
2022-11-03T17:15:18.086Z,45.69
2022-11-03T17:17:45.849Z,45.89
2022-11-03T17:20:14.802Z,46.33
2022-11-03T17:22:44.105Z,46.50
2022-11-03T17:25:13.045Z,46.89
2022-11-03T17:28:00.900Z,47.35
2022-11-03T17:30:32.471Z,47.11
2022-11-03T17:33:05.566Z,47.33
2022-11-03T17:35:39.514Z,47.61
2022-11-03T17:38:15.471Z,47.72
2022-11-03T17:40:46.158Z,47.82
2022-11-03T17:43:27.257Z,48.62
2022-11-03T17:45:55.563Z,48.69
2022-11-03T17:48:24.150Z,48.61
2022-11-03T17:50:54.595Z,48.88
2022-11-03T17:53:27.640Z,49.37
2022-11-03T17:56:27.965Z,49.13
2022-11-03T17:58:47.208Z,49.67
2022-11-03T18:01:25.250Z,50.26
2022-11-03T18:03:53.286Z,50.72
2022-11-03T18:06:22.063Z,50.82
2022-11-03T18:08:50.437Z,50.82
2022-11-03T18:11:47.756Z,50.56
2022-11-03T18:14:16.638Z,51.56
2022-11-03T18:16:50.406Z,52.03
2022-11-03T18:19:19.751Z,51.91
2022-11-03T18:21:49.340Z,51.96
2022-11-03T18:24:23.930Z,52.30
2022-11-03T18:26:56.281Z,52.60
2022-11-03T18:29:26.686Z,52.90
2022-11-03T18:31:58.321Z,53.08
2022-11-03T18:34:28.192Z,53.53
2022-11-03T18:36:57.665Z,53.78
2022-11-03T18:39:29.441Z,54.41
2022-11-03T18:41:59.467Z,54.24
2022-11-03T18:44:31.183Z,54.53
2022-11-03T18:46:59.604Z,54.92
2022-11-03T18:49:30.590Z,55.46
2022-11-03T18:52:10.371Z,55.40
2022-11-03T18:54:47.121Z,55.53
2022-11-03T18:57:29.369Z,56.11
2022-11-03T18:59:57.851Z,56.32
2022-11-03T19:02:28.533Z,55.95
2022-11-03T19:05:00.705Z,56.46
2022-11-03T19:07:51.018Z,56.92
2022-11-03T19:10:24.241Z,56.31
2022-11-03T19:12:54.693Z,56.96
2022-11-03T19:15:26.891Z,56.44
2022-11-03T19:17:59.554Z,56.78
2022-11-03T19:20:29.013Z,56.44
2022-11-03T19:22:57.804Z,55.97
2022-11-03T19:25:25.371Z,55.16
2022-11-03T19:27:54.974Z,54.80
2022-11-03T19:30:25.814Z,54.79
2022-11-03T19:32:57.524Z,54.94
2022-11-03T19:35:32.921Z,54.99
2022-11-03T19:38:05.834Z,54.69
2022-11-03T19:40:34.332Z,55.96
2022-11-03T19:43:02.019Z,56.59
2022-11-03T19:45:29.572Z,56.75
2022-11-03T19:48:23.288Z,56.08
2022-11-03T19:50:50.503Z,55.79
2022-11-03T19:53:28.208Z,55.89
2022-11-03T19:56:00.128Z,56.09
2022-11-03T19:58:29.371Z,56.78
2022-11-03T20:01:01.749Z,56.74
2022-11-03T20:03:35.788Z,57.73
2022-11-03T20:06:04.130Z,57.71
2022-11-03T20:08:34.214Z,57.98
2022-11-03T20:11:02.005Z,58.83
2022-11-03T20:13:40.766Z,59.53
2022-11-03T20:16:16.913Z,59.46
2022-11-03T20:18:44.630Z,60.05
2022-11-03T20:21:20.214Z,59.75
2022-11-03T20:23:49.572Z,60.11
2022-11-03T20:26:21.879Z,60.48
2022-11-03T20:28:52.921Z,60.25
2022-11-03T20:31:20.462Z,60.70
2022-11-03T20:33:52.019Z,60.95
2022-11-03T20:36:21.542Z,61.91
2022-11-03T20:38:59.518Z,62.03
2022-11-03T20:41:30.482Z,62.91
2022-11-03T20:43:59.636Z,63.01
2022-11-03T20:46:31.958Z,60.98
2022-11-03T20:49:01.258Z,60.94
2022-11-03T20:51:37.900Z,61.71
2022-11-03T20:54:20.963Z,61.99
2022-11-03T20:56:49.290Z,62.35
2022-11-03T20:59:18.388Z,63.58
2022-11-03T21:01:46.684Z,64.19
2022-11-03T21:04:17.666Z,63.60
2022-11-03T21:06:45.945Z,63.56
2022-11-03T21:09:17.734Z,64.23
2022-11-03T21:11:47.496Z,64.12
2022-11-03T21:14:52.299Z,65.22
2022-11-03T21:17:41.807Z,65.88
2022-11-03T21:20:12.835Z,66.81
2022-11-03T21:22:52.394Z,66.51
2022-11-03T21:25:24.753Z,66.33
2022-11-03T21:27:58.032Z,65.38
2022-11-03T21:30:26.691Z,66.23
2022-11-03T21:32:54.793Z,67.35
2022-11-03T21:35:23.382Z,66.63
2022-11-03T21:37:52.257Z,66.96
2022-11-03T21:40:19.787Z,66.90
2022-11-03T21:43:06.018Z,66.30
2022-11-03T21:45:34.681Z,67.21
2022-11-03T21:48:21.293Z,67.38
2022-11-03T21:50:49.283Z,68.00
2022-11-03T21:53:16.969Z,67.39
2022-11-03T21:55:46.776Z,68.19
2022-11-03T21:58:14.694Z,68.73
2022-11-03T22:00:42.747Z,68.82
2022-11-03T22:03:11.463Z,68.59
2022-11-03T22:05:41.046Z,68.24
2022-11-03T22:08:10.758Z,68.31
2022-11-03T22:10:40.843Z,68.02
2022-11-03T22:13:09.437Z,68.87
2022-11-03T22:15:55.617Z,69.68
2022-11-03T22:18:23.497Z,69.84
2022-11-03T22:21:10.626Z,69.31
2022-11-03T22:23:56.516Z,69.50
2022-11-03T22:26:42.871Z,68.91
2022-11-03T22:29:28.677Z,69.57
2022-11-03T22:31:56.224Z,69.37
2022-11-03T22:34:43.807Z,69.17
2022-11-03T22:37:11.316Z,69.46
2022-11-03T22:40:04.854Z,69.76
2022-11-03T22:42:51.549Z,69.77
2022-11-03T22:45:40.678Z,69.86
2022-11-03T22:48:08.367Z,70.42
2022-11-03T22:50:35.928Z,69.98
2022-11-03T22:53:23.343Z,69.95
2022-11-03T22:55:51.167Z,70.27
2022-11-03T22:58:18.993Z,71.18
2022-11-03T23:00:47.611Z,71.95
2022-11-03T23:03:15.250Z,71.75
2022-11-03T23:05:42.983Z,71.60
2022-11-03T23:08:10.587Z,72.14
2022-11-03T23:10:38.020Z,71.37
2022-11-03T23:13:06.051Z,71.01
2022-11-03T23:15:33.870Z,70.68
2022-11-03T23:18:24.134Z,71.15
2022-11-03T23:21:06.675Z,71.89
2022-11-03T23:23:57.464Z,73.47
2022-11-03T23:26:27.595Z,74.12
2022-11-03T23:28:55.421Z,72.85
2022-11-03T23:31:23.194Z,72.22
2022-11-03T23:33:50.828Z,73.00
2022-11-03T23:36:19.034Z,74.59
2022-11-03T23:38:46.785Z,74.02
2022-11-03T23:41:17.652Z,75.51
2022-11-03T23:43:46.933Z,75.63
2022-11-03T23:46:36.553Z,75.96
2022-11-03T23:49:04.847Z,76.31
2022-11-03T23:51:34.436Z,75.24
2022-11-03T23:54:04.171Z,75.13
2022-11-03T23:56:55.198Z,74.59
2022-11-03T23:59:23.497Z,74.78
